Time;durP1;ratioP1;P1;durP2;ratioP2;P2;SDS_P1;SDS_P2;PMS_P1;PMS_P2;Temp;Humidity;BMP_temperature;BMP_pressure;BME280_temperature;BME280_humidity;BME280_pressure;Samples;Min_cycle;Max_cycle;Signal;HPM_P1;HPM_P2
2022/02/01 00:01:18;;;;;;;7.38;1.60;;;12.60;61.40;;;;;;5072382;28;20059;-77
2022/02/01 00:03:39;;;;;;;7.25;1.90;;;12.60;61.50;;;;;;5073530;28;20063;-75
2022/02/01 00:06:12;;;;;;;7.28;1.88;;;12.60;61.50;;;;;;5056844;28;20084;-78
2022/02/01 00:09:06;;;;;;;8.98;1.25;;;12.60;61.50;;;;;;5080424;28;20059;-76
2022/02/01 00:19:51;;;;;;;6.75;1.50;;;12.50;61.70;;;;;;5098340;28;20085;-77
2022/02/01 00:36:20;;;;;;;9.63;1.48;;;12.40;61.20;;;;;;5077993;28;20263;-76
2022/02/01 00:38:40;;;;;;;11.52;2.03;;;12.40;61.90;;;;;;5076320;28;20068;-76
2022/02/01 00:41:08;;;;;;;10.00;1.75;;;12.50;61.50;;;;;;5077970;28;20537;-76
2022/02/01 00:43:34;;;;;;;6.65;1.67;;;12.50;61.70;;;;;;5093287;28;20097;-76
2022/02/01 00:46:02;;;;;;;9.13;2.03;;;12.50;61.90;;;;;;5079188;28;20048;-75
2022/02/01 00:48:29;;;;;;;10.70;1.33;;;12.40;61.50;;;;;;5088886;28;20048;-76
2022/02/01 00:50:55;;;;;;;6.85;1.52;;;12.50;61.60;;;;;;5077515;28;20052;-76
2022/02/01 00:53:26;;;;;;;8.90;1.63;;;12.40;61.40;;;;;;5092194;28;20081;-76
2022/02/01 00:55:56;;;;;;;8.70;2.22;;;12.40;61.50;;;;;;5075394;28;20463;-76
2022/02/01 00:58:22;;;;;;;8.60;1.33;;;12.40;61.50;;;;;;5077547;28;20129;-75
2022/02/01 01:00:48;;;;;;;10.32;1.55;;;12.40;61.60;;;;;;5079314;28;20081;-75
2022/02/01 01:03:14;;;;;;;7.35;1.55;;;12.40;61.70;;;;;;5087062;28;20036;-76
2022/02/01 01:05:40;;;;;;;6.35;1.17;;;12.30;61.30;;;;;;5059875;28;20049;-76
2022/02/01 01:08:06;;;;;;;5.78;1.20;;;12.30;61.30;;;;;;5076909;28;20414;-75
2022/02/01 01:10:34;;;;;;;7.13;1.35;;;12.30;61.40;;;;;;5077376;28;20082;-76
2022/02/01 01:13:16;;;;;;;5.53;1.08;;;12.30;61.20;;;;;;5059579;28;20052;-76
2022/02/01 01:15:51;;;;;;;7.82;1.20;;;12.20;60.70;;;;;;5058749;28;20063;-76
2022/02/01 01:54:01;;;;;;;4.82;1.67;;;12.00;61.20;;;;;;5095223;28;20445;-75
2022/02/01 01:56:30;;;;;;;4.40;1.17;;;12.10;61.40;;;;;;5091531;28;20550;-75
2022/02/01 01:58:56;;;;;;;7.50;1.55;;;12.10;61.10;;;;;;5075961;28;20123;-75
2022/02/01 02:01:22;;;;;;;11.35;1.67;;;12.10;61.00;;;;;;5077574;28;20081;-74
2022/02/01 02:03:49;;;;;;;4.63;1.10;;;12.10;61.20;;;;;;5076155;28;20052;-76
2022/02/01 02:06:17;;;;;;;4.97;1.17;;;12.10;61.20;;;;;;5096374;28;20051;-75
2022/02/01 02:08:46;;;;;;;5.40;1.30;;;12.20;61.50;;;;;;5095727;28;20052;-75
2022/02/01 02:11:18;;;;;;;7.90;1.33;;;12.20;61.80;;;;;;5078923;28;20056;-77
2022/02/01 02:16:36;;;;;;;7.55;1.33;;;12.20;62.10;;;;;;5058493;28;20052;-75
2022/02/01 02:19:03;;;;;;;6.97;1.42;;;12.30;62.10;;;;;;5075635;28;20052;-76
2022/02/01 02:21:29;;;;;;;5.82;1.23;;;12.30;62.00;;;;;;5075079;28;20059;-78
2022/02/01 02:23:55;;;;;;;5.20;0.98;;;12.30;61.90;;;;;;5075581;28;20040;-75
2022/02/01 02:26:21;;;;;;;6.03;0.98;;;12.30;61.90;;;;;;5057814;28;20048;-75
2022/02/01 02:28:47;;;;;;;5.20;1.08;;;12.30;61.70;;;;;;5068773;28;20055;-78
2022/02/01 02:31:13;;;;;;;6.60;0.98;;;12.30;61.70;;;;;;5095124;28;20048;-76
2022/02/01 02:33:39;;;;;;;4.78;1.33;;;12.30;61.80;;;;;;5059629;28;20051;-76
2022/02/01 02:36:15;;;;;;;5.22;1.13;;;12.40;61.70;;;;;;5058111;28;20060;-75
2022/02/01 02:39:06;;;;;;;5.38;1.58;;;12.40;61.70;;;;;;5065678;28;20052;-75
2022/02/01 02:41:38;;;;;;;3.67;0.70;;;12.40;61.60;;;;;;5076861;28;20040;-75
2022/02/01 02:46:51;;;;;;;5.13;0.80;;;12.40;61.80;;;;;;5075075;28;20048;-75
2022/02/01 02:49:19;;;;;;;4.60;1.05;;;12.40;61.70;;;;;;5077405;28;20370;-76
2022/02/01 02:51:45;;;;;;;4.95;1.15;;;12.30;61.70;;;;;;5092770;28;20131;-76
2022/02/01 02:54:14;;;;;;;6.38;1.02;;;12.30;61.70;;;;;;5081832;28;20181;-75
2022/02/01 02:56:44;;;;;;;6.05;1.30;;;12.20;61.70;;;;;;5096097;28;20074;-75
2022/02/01 02:59:10;;;;;;;3.47;0.60;;;12.20;61.60;;;;;;5082777;28;20055;-76
2022/02/01 03:01:36;;;;;;;10.52;1.30;;;12.20;61.70;;;;;;5075453;28;20053;-74
2022/02/01 03:04:02;;;;;;;6.47;1.05;;;12.10;61.40;;;;;;5077549;28;20048;-74
2022/02/01 03:06:28;;;;;;;5.38;0.88;;;12.00;61.40;;;;;;5086653;28;20048;-77
2022/02/01 03:08:53;;;;;;;5.90;1.15;;;11.90;61.40;;;;;;5075360;28;20055;-76
2022/02/01 03:11:19;;;;;;;3.38;0.70;;;11.90;61.50;;;;;;5075068;28;20516;-75
2022/02/01 03:13:56;;;;;;;2.88;0.95;;;11.90;61.80;;;;;;5093271;28;20052;-76
2022/02/01 03:21:32;;;;;;;7.68;0.82;;;11.90;61.80;;;;;;5074739;28;20048;-75
2022/02/01 03:23:57;;;;;;;3.67;0.57;;;11.80;61.60;;;;;;5072886;28;20093;-76
2022/02/01 03:26:23;;;;;;;6.50;1.42;;;11.80;61.90;;;;;;5074639;28;20044;-76
2022/02/01 03:28:49;;;;;;;9.65;1.33;;;11.70;61.80;;;;;;5057089;28;20045;-76
2022/02/01 03:31:16;;;;;;;3.90;0.60;;;11.80;62.10;;;;;;5074622;28;20392;-75
2022/02/01 03:33:41;;;;;;;6.30;1.05;;;11.80;62.10;;;;;;5074344;28;20044;-75
2022/02/01 03:36:07;;;;;;;3.78;0.82;;;11.90;62.20;;;;;;5074918;28;20063;-76
2022/02/01 03:38:33;;;;;;;6.32;1.27;;;11.80;62.10;;;;;;5075886;28;20084;-75
2022/02/01 03:40:59;;;;;;;5.38;1.00;;;11.80;62.20;;;;;;5094185;28;20043;-75
2022/02/01 03:43:25;;;;;;;3.60;0.88;;;11.80;62.30;;;;;;5083762;28;20052;-78
2022/02/01 03:45:50;;;;;;;4.05;0.80;;;11.80;62.30;;;;;;5075962;28;20432;-76
2022/02/01 03:48:16;;;;;;;4.10;0.80;;;11.80;62.40;;;;;;5060635;28;20063;-77
2022/02/01 03:50:43;;;;;;;8.18;1.23;;;11.80;62.40;;;;;;5061086;28;20067;-77
2022/02/01 03:53:09;;;;;;;5.78;1.00;;;11.90;62.50;;;;;;5091696;28;20044;-77
2022/02/01 03:55:36;;;;;;;7.15;1.20;;;11.80;62.50;;;;;;5087797;28;20036;-76
2022/02/01 03:58:02;;;;;;;7.82;1.70;;;11.80;62.40;;;;;;5078766;28;20052;-77
2022/02/01 04:00:28;;;;;;;7.22;1.27;;;11.90;62.40;;;;;;5086299;28;20117;-76
2022/02/01 04:02:55;;;;;;;4.75;0.93;;;11.80;62.50;;;;;;5083720;28;20048;-76
2022/02/01 04:05:21;;;;;;;4.53;1.25;;;11.90;62.70;;;;;;5078927;28;20059;-76
2022/02/01 04:07:47;;;;;;;5.45;1.10;;;11.90;62.60;;;;;;5090944;28;20040;-75
2022/02/01 04:10:14;;;;;;;10.88;1.10;;;11.90;62.50;;;;;;5070676;28;20113;-77
2022/02/01 04:12:40;;;;;;;4.43;1.00;;;11.90;62.70;;;;;;5063844;28;20041;-75
2022/02/01 04:15:07;;;;;;;6.32;1.30;;;11.90;62.60;;;;;;5078145;28;20049;-76
2022/02/01 04:17:33;;;;;;;4.57;0.98;;;11.90;62.60;;;;;;5077977;28;20053;-76
2022/02/01 04:19:59;;;;;;;7.50;1.30;;;11.90;62.70;;;;;;5062332;28;20048;-76
2022/02/01 04:22:25;;;;;;;3.83;1.17;;;11.80;62.80;;;;;;5086311;28;20051;-77
2022/02/01 04:24:51;;;;;;;7.93;1.52;;;11.80;62.90;;;;;;5098024;28;20054;-77
2022/02/01 04:27:30;;;;;;;7.95;1.20;;;11.80;62.80;;;;;;5082884;28;20444;-75
2022/02/01 04:30:07;;;;;;;4.93;1.27;;;11.80;63.10;;;;;;5072335;28;20114;-76
2022/02/01 04:32:53;;;;;;;8.95;2.10;;;11.70;63.00;;;;;;5087320;28;20410;-77
2022/02/01 04:35:29;;;;;;;6.03;1.63;;;11.70;62.80;;;;;;5097049;28;20095;-75
2022/02/01 04:37:55;;;;;;;5.40;1.48;;;11.70;63.30;;;;;;5090983;28;20044;-76
2022/02/01 04:40:26;;;;;;;5.85;1.42;;;11.70;63.40;;;;;;5077399;28;20452;-76
2022/02/01 04:42:53;;;;;;;6.32;1.42;;;11.70;63.40;;;;;;5070119;28;20040;-75
2022/02/01 04:45:21;;;;;;;11.65;2.05;;;11.60;63.40;;;;;;5077036;28;20087;-75
2022/02/01 04:47:49;;;;;;;9.43;2.00;;;11.60;63.60;;;;;;5077171;28;20053;-75
2022/02/01 04:50:17;;;;;;;9.50;1.83;;;11.60;63.60;;;;;;5077634;28;20130;-76
2022/02/01 04:52:45;;;;;;;7.93;1.98;;;11.60;63.60;;;;;;5075893;28;20485;-74
2022/02/01 04:55:12;;;;;;;8.68;2.10;;;11.60;63.70;;;;;;5059616;28;20037;-75
2022/02/01 04:57:53;;;;;;;8.40;1.85;;;11.50;63.40;;;;;;5078482;28;20048;-74
2022/02/01 05:00:30;;;;;;;9.43;1.77;;;11.50;63.80;;;;;;5071574;28;20036;-75
2022/02/01 05:02:58;;;;;;;10.52;2.03;;;11.50;63.90;;;;;;5077927;28;20468;-75
2022/02/01 05:05:31;;;;;;;8.63;2.42;;;11.40;63.90;;;;;;5059789;28;20080;-76
2022/02/01 05:08:03;;;;;;;10.90;2.17;;;11.50;64.00;;;;;;5069462;28;20114;-75
2022/02/01 05:10:32;;;;;;;14.75;2.60;;;11.50;63.90;;;;;;5076614;28;20432;-73
2022/02/01 05:13:18;;;;;;;9.80;2.35;;;11.70;64.20;;;;;;5085929;28;20043;-73
2022/02/01 05:15:44;;;;;;;9.90;2.63;;;11.90;63.80;;;;;;5097157;28;20062;-71
2022/02/01 05:18:16;;;;;;;16.23;2.88;;;12.10;62.80;;;;;;5090245;28;20452;-72
2022/02/01 05:20:49;;;;;;;12.65;3.33;;;12.10;62.00;;;;;;5076918;28;20086;-71
2022/02/01 05:23:16;;;;;;;15.20;3.30;;;12.20;61.50;;;;;;5077170;28;20048;-73
2022/02/01 05:25:43;;;;;;;16.80;3.08;;;12.30;61.00;;;;;;5085368;28;20043;-73
2022/02/01 05:28:08;;;;;;;11.98;2.63;;;12.30;60.90;;;;;;5095171;28;20045;-74
2022/02/01 05:30:35;;;;;;;9.85;2.30;;;12.40;61.10;;;;;;5085388;28;20394;-74
2022/02/01 05:33:01;;;;;;;12.63;2.90;;;12.40;61.20;;;;;;5078627;28;20044;-74
2022/02/01 05:35:28;;;;;;;10.98;2.08;;;12.50;61.20;;;;;;5075400;28;20053;-69
2022/02/01 05:37:53;;;;;;;7.78;1.88;;;12.70;61.00;;;;;;5076292;28;20048;-76
2022/02/01 05:40:20;;;;;;;12.63;2.58;;;12.90;60.70;;;;;;5076196;28;20048;-73
2022/02/01 05:43:12;;;;;;;11.90;2.30;;;13.30;60.40;;;;;;5076313;28;20056;-76
2022/02/01 05:45:33;;;;;;;17.40;4.03;;;13.50;60.10;;;;;;5059503;28;20084;-80
2022/02/01 05:48:31;;;;;;;13.98;2.70;;;13.70;60.50;;;;;;5076622;28;20052;-74
2022/02/01 05:50:57;;;;;;;12.57;3.28;;;14.00;60.60;;;;;;5052344;28;20059;-78
2022/02/01 05:53:23;;;;;;;18.83;4.25;;;14.10;60.80;;;;;;5058415;28;20055;-77
2022/02/01 05:55:51;;;;;;;8.10;2.42;;;14.00;61.10;;;;;;5058221;28;20364;-82
2022/02/01 05:58:17;;;;;;;12.68;2.42;;;14.40;61.30;;;;;;5076134;28;20051;-78
2022/02/01 06:00:44;;;;;;;9.82;2.40;;;14.60;61.00;;;;;;5058675;28;20360;-77
2022/02/01 06:03:10;;;;;;;14.27;3.00;;;14.60;59.60;;;;;;5075692;28;20044;-78
2022/02/01 06:05:36;;;;;;;12.75;2.60;;;14.70;61.30;;;;;;5058229;28;20060;-76
2022/02/01 06:08:02;;;;;;;16.95;3.00;;;14.80;61.30;;;;;;5103380;28;20114;-78
2022/02/01 06:10:29;;;;;;;18.95;2.88;;;14.80;61.40;;;;;;5116639;28;20043;-76
2022/02/01 06:12:56;;;;;;;11.23;2.75;;;15.00;61.70;;;;;;5083812;28;20052;-76
2022/02/01 06:15:29;;;;;;;12.18;2.58;;;15.00;61.50;;;;;;5058176;28;20053;-77
2022/02/01 06:17:56;;;;;;;13.23;2.85;;;15.10;61.50;;;;;;5075596;28;20048;-76
2022/02/01 06:20:22;;;;;;;11.30;2.85;;;15.10;61.40;;;;;;5057974;28;20525;-74
2022/02/01 06:22:48;;;;;;;11.13;2.47;;;15.20;61.20;;;;;;5075660;28;20122;-76
2022/02/01 06:25:14;;;;;;;8.63;2.33;;;15.30;60.90;;;;;;5075547;28;20090;-75
2022/02/01 06:27:39;;;;;;;9.40;2.10;;;15.30;60.80;;;;;;5075362;28;20110;-77
2022/02/01 06:30:07;;;;;;;10.57;2.15;;;15.30;60.60;;;;;;5075627;28;20407;-77
2022/02/01 06:32:38;;;;;;;11.80;2.05;;;15.40;60.50;;;;;;5075494;28;20048;-76
2022/02/01 06:35:05;;;;;;;10.65;2.35;;;15.40;60.40;;;;;;5057179;28;20128;-77
2022/02/01 06:37:31;;;;;;;8.35;2.05;;;15.40;60.70;;;;;;5075481;28;20045;-76
2022/02/01 06:39:56;;;;;;;8.55;2.08;;;15.20;60.40;;;;;;5057722;28;20051;-73
2022/02/01 06:42:25;;;;;;;10.45;2.80;;;15.40;61.10;;;;;;5074912;28;20044;-75
2022/02/01 06:44:51;;;;;;;12.50;2.45;;;15.50;60.70;;;;;;5075239;28;20143;-80
2022/02/01 06:47:20;;;;;;;9.57;1.98;;;15.60;60.40;;;;;;5048356;28;20127;-78
2022/02/01 06:49:46;;;;;;;11.52;2.25;;;15.70;60.30;;;;;;5060505;28;20055;-77
2022/02/01 06:52:12;;;;;;;11.73;2.65;;;15.80;60.10;;;;;;5057433;28;20048;-80
2022/02/01 06:54:40;;;;;;;13.35;2.25;;;15.80;60.00;;;;;;5075136;28;20048;-78
2022/02/01 06:57:06;;;;;;;8.40;2.25;;;15.90;60.00;;;;;;5075400;28;20094;-78
2022/02/01 06:59:32;;;;;;;8.38;2.20;;;15.90;59.90;;;;;;5074829;28;20136;-77
2022/02/01 07:01:58;;;;;;;11.20;2.10;;;16.00;59.70;;;;;;5080041;28;20122;-77
2022/02/01 07:04:23;;;;;;;10.45;2.35;;;16.00;59.80;;;;;;5096146;28;20146;-81
2022/02/01 07:06:49;;;;;;;9.13;1.90;;;16.00;59.70;;;;;;5074487;28;20029;-80
2022/02/01 07:09:16;;;;;;;9.23;1.98;;;16.10;59.70;;;;;;5072989;28;20044;-80
2022/02/01 07:11:41;;;;;;;12.00;2.85;;;16.10;59.10;;;;;;5040246;28;20048;-76
2022/02/01 07:14:07;;;;;;;19.60;2.92;;;16.00;60.20;;;;;;5077484;28;20044;-74
2022/02/01 07:16:33;;;;;;;19.13;2.97;;;16.10;60.10;;;;;;5079622;28;20044;-79
2022/02/01 07:18:59;;;;;;;15.35;2.35;;;15.90;60.10;;;;;;5079069;28;20177;-79
2022/02/01 07:21:26;;;;;;;12.35;1.98;;;16.00;60.00;;;;;;5079155;28;20375;-76
2022/02/01 07:23:52;;;;;;;16.05;2.75;;;16.00;59.80;;;;;;5085285;28;20363;-80
2022/02/01 07:26:21;;;;;;;9.82;2.50;;;16.00;59.80;;;;;;5067491;28;20052;-78
2022/02/01 07:28:47;;;;;;;6.78;2.17;;;15.90;59.70;;;;;;5061836;28;20459;-79
2022/02/01 07:31:13;;;;;;;9.75;2.15;;;15.90;59.80;;;;;;5074635;28;20052;-76
2022/02/01 07:33:39;;;;;;;9.30;1.77;;;15.90;59.90;;;;;;5074743;28;20052;-78
2022/02/01 07:36:06;;;;;;;11.05;2.45;;;15.60;60.80;;;;;;5068609;28;20403;-74
2022/02/01 07:38:32;;;;;;;12.00;1.80;;;15.50;61.80;;;;;;5094191;28;20447;-78
2022/02/01 07:40:58;;;;;;;8.30;1.98;;;15.50;62.20;;;;;;5072627;28;20140;-79
2022/02/01 07:43:31;;;;;;;15.68;2.50;;;15.50;62.30;;;;;;5089859;28;20123;-85
2022/02/01 07:46:00;;;;;;;15.23;2.72;;;15.40;62.60;;;;;;5058070;28;20048;-77
2022/02/01 07:48:25;;;;;;;8.35;1.90;;;15.40;62.80;;;;;;5089669;28;20429;-76
2022/02/01 07:50:51;;;;;;;9.55;1.58;;;15.40;62.90;;;;;;5085623;28;20059;-77
2022/02/01 07:53:17;;;;;;;12.98;2.20;;;15.40;62.90;;;;;;5087138;28;20408;-80
2022/02/01 07:55:42;;;;;;;11.23;2.05;;;15.30;62.90;;;;;;5060974;28;20048;-78
2022/02/01 07:58:08;;;;;;;11.60;2.25;;;15.30;63.00;;;;;;5078028;28;20080;-79
2022/02/01 08:00:34;;;;;;;10.35;1.35;;;15.30;63.00;;;;;;5078099;28;20410;-78
2022/02/01 08:03:00;;;;;;;12.38;2.38;;;15.30;63.00;;;;;;5077749;28;20128;-77
2022/02/01 08:05:29;;;;;;;15.93;1.98;;;15.30;63.10;;;;;;5077921;28;20052;-77
2022/02/01 08:07:56;;;;;;;10.00;2.47;;;15.40;63.50;;;;;;5080387;28;20444;-80
2022/02/01 08:10:22;;;;;;;8.90;1.77;;;15.50;64.40;;;;;;5087075;28;20364;-81
2022/02/01 08:20:36;;;;;;;9.95;1.52;;;15.80;63.40;;;;;;5059867;28;20460;-80
2022/02/01 08:23:02;;;;;;;7.43;1.83;;;15.80;63.50;;;;;;5077804;28;20367;-81
2022/02/01 08:25:32;;;;;;;8.07;1.00;;;15.80;63.30;;;;;;5060619;28;20048;-84
2022/02/01 08:28:01;;;;;;;7.32;1.20;;;15.80;63.60;;;;;;5043597;28;20336;-79
2022/02/01 08:30:28;;;;;;;9.60;1.15;;;15.80;63.70;;;;;;5077738;28;20460;-81
2022/02/01 08:32:54;;;;;;;9.90;1.52;;;15.90;63.70;;;;;;5060398;28;20053;-80
2022/02/01 08:35:20;;;;;;;6.38;1.30;;;15.90;63.90;;;;;;5059441;28;20124;-80
2022/02/01 08:37:46;;;;;;;12.75;1.70;;;15.80;64.00;;;;;;5060256;28;20197;-78
2022/02/01 08:40:16;;;;;;;7.70;1.80;;;15.90;64.20;;;;;;5078281;28;20363;-77
2022/02/01 08:42:46;;;;;;;7.60;1.33;;;15.90;64.60;;;;;;5077581;28;20055;-79
2022/02/01 08:45:13;;;;;;;7.32;1.58;;;15.90;64.30;;;;;;5078223;28;20383;-81
2022/02/01 08:47:39;;;;;;;5.85;1.77;;;15.90;64.20;;;;;;5069150;28;20149;-79
2022/02/01 08:50:06;;;;;;;7.88;1.55;;;15.90;64.90;;;;;;5059548;28;20487;-80
2022/02/01 08:52:40;;;;;;;10.85;2.03;;;15.90;65.00;;;;;;5060063;28;20123;-82
2022/02/01 08:55:10;;;;;;;10.48;1.80;;;15.90;64.70;;;;;;5076943;28;20131;-80
2022/02/01 08:57:36;;;;;;;13.05;2.30;;;15.90;64.60;;;;;;5059581;28;20114;-79
2022/02/01 09:00:08;;;;;;;11.38;2.13;;;15.90;64.80;;;;;;5060317;28;20460;-81
2022/02/01 09:02:34;;;;;;;13.95;1.63;;;15.90;64.80;;;;;;5060133;28;20442;-78
2022/02/01 09:05:00;;;;;;;8.80;2.00;;;15.90;64.70;;;;;;5077194;28;20139;-79
2022/02/01 09:07:26;;;;;;;6.30;1.50;;;16.00;64.70;;;;;;5078381;28;20072;-80
2022/02/01 09:09:52;;;;;;;9.45;1.98;;;16.00;64.70;;;;;;5079715;28;20055;-74
2022/02/01 09:12:18;;;;;;;6.88;1.50;;;16.10;64.10;;;;;;5097194;28;20108;-80
2022/02/01 09:14:53;;;;;;;9.65;1.15;;;16.00;62.30;;;;;;5075322;28;20452;-82
2022/02/01 09:17:23;;;;;;;6.93;1.70;;;16.10;61.50;;;;;;5042208;28;20033;-81
2022/02/01 09:19:49;;;;;;;8.77;1.75;;;16.10;61.50;;;;;;5077044;28;20349;-83
2022/02/01 09:22:15;;;;;;;9.25;1.17;;;16.20;61.70;;;;;;5059129;28;20044;-79
2022/02/01 09:24:42;;;;;;;7.35;1.80;;;16.10;61.70;;;;;;5043458;28;20040;-79
2022/02/01 09:27:10;;;;;;;14.95;1.65;;;16.00;61.80;;;;;;5076799;28;20109;-78
2022/02/01 09:29:36;;;;;;;11.23;1.90;;;16.10;62.50;;;;;;5058694;28;20091;-81
2022/02/01 09:32:04;;;;;;;10.48;2.00;;;16.00;62.50;;;;;;5042639;28;20131;-82
2022/02/01 09:34:29;;;;;;;16.65;2.10;;;16.00;62.80;;;;;;5042072;28;20556;-81
2022/02/01 09:36:56;;;;;;;15.18;2.17;;;15.90;62.80;;;;;;5043634;28;20131;-82
2022/02/01 09:39:23;;;;;;;11.35;1.75;;;15.90;63.30;;;;;;5058192;28;20040;-80
2022/02/01 09:41:50;;;;;;;11.45;2.28;;;15.90;63.50;;;;;;5075536;28;20132;-80
2022/02/01 09:44:22;;;;;;;10.43;1.67;;;15.90;63.60;;;;;;5045586;28;20070;-77
2022/02/01 09:46:52;;;;;;;16.83;2.25;;;15.80;63.40;;;;;;5059065;28;20101;-78
2022/02/01 09:49:22;;;;;;;13.65;2.03;;;15.80;63.60;;;;;;5058776;28;20044;-77
2022/02/01 09:51:57;;;;;;;13.55;2.05;;;15.80;63.20;;;;;;5083019;28;20040;-78
2022/02/01 09:54:28;;;;;;;12.02;1.80;;;15.70;63.40;;;;;;5081011;28;20119;-79
2022/02/01 09:56:57;;;;;;;14.63;1.77;;;15.40;61.20;;;;;;5041955;28;20436;-79
2022/02/01 09:59:33;;;;;;;17.10;2.67;;;14.50;63.70;;;;;;5058482;28;20097;-76
2022/02/01 10:02:12;;;;;;;10.55;1.65;;;14.00;65.60;;;;;;5077175;28;20128;-77
2022/02/01 10:04:39;;;;;;;10.30;2.08;;;14.10;68.30;;;;;;5041397;28;20123;-74
2022/02/01 10:07:06;;;;;;;11.60;2.33;;;14.30;68.10;;;;;;5075770;28;20430;-76
2022/02/01 10:09:32;;;;;;;34.88;5.03;;;14.50;67.70;;;;;;5076096;28;20116;-75
2022/02/01 10:11:57;;;;;;;16.17;3.95;;;14.60;67.40;;;;;;5076409;28;20040;-75
2022/02/01 10:14:27;;;;;;;15.95;3.53;;;14.80;67.40;;;;;;5080763;28;20463;-76
2022/02/01 10:16:55;;;;;;;21.52;3.97;;;14.90;68.30;;;;;;5094866;28;20059;-75
2022/02/01 10:19:22;;;;;;;22.13;4.10;;;14.90;69.40;;;;;;5071700;28;20052;-79
2022/02/01 10:21:52;;;;;;;12.52;3.40;;;15.00;69.50;;;;;;5061828;28;20055;-78
2022/02/01 10:24:37;;;;;;;13.05;2.67;;;15.00;69.00;;;;;;5090682;28;20366;-77
2022/02/01 10:27:16;;;;;;;16.88;3.25;;;15.10;68.90;;;;;;5068424;28;20044;-76
2022/02/01 10:33:03;;;;;;;14.15;3.15;;;15.10;68.60;;;;;;5094162;28;20455;-77
2022/02/01 10:38:01;;;;;;;14.13;3.25;;;15.10;67.90;;;;;;5096071;28;20062;-76
2022/02/01 10:40:42;;;;;;;14.80;2.80;;;15.10;67.80;;;;;;5095507;28;20048;-77
2022/02/01 10:43:17;;;;;;;14.40;3.15;;;14.80;66.10;;;;;;5093101;28;20044;-77
2022/02/01 10:45:45;;;;;;;17.42;3.95;;;14.80;66.90;;;;;;5095610;28;20059;-75
2022/02/01 10:48:16;;;;;;;12.95;2.08;;;14.90;67.20;;;;;;5061038;28;20036;-76
2022/02/01 10:50:42;;;;;;;12.90;2.92;;;14.90;67.20;;;;;;5094485;28;20051;-76
2022/02/01 10:53:36;;;;;;;15.88;2.92;;;14.90;67.10;;;;;;5089846;28;20033;-76
2022/02/01 10:56:04;;;;;;;;;;;15.00;66.90;;;;;;5073093;28;20056;-74
2022/02/01 10:58:31;;;;;;;9.93;2.85;;;14.90;66.60;;;;;;5075103;28;19920;-74
2022/02/01 11:00:58;;;;;;;8.43;1.92;;;14.90;66.60;;;;;;5080061;28;20058;-76
2022/02/01 11:03:24;;;;;;;11.60;2.20;;;14.90;66.50;;;;;;5095233;28;20044;-76
2022/02/01 11:05:52;;;;;;;9.38;2.20;;;14.90;66.30;;;;;;5095759;28;20344;-74
2022/02/01 11:08:26;;;;;;;9.68;2.25;;;14.90;66.00;;;;;;5077542;28;20052;-74
2022/02/01 11:10:52;;;;;;;;;;;15.00;65.80;;;;;;5093976;28;20123;-74
2022/02/01 11:13:18;;;;;;;5.53;1.60;;;15.00;65.60;;;;;;5094287;28;20227;-74
2022/02/01 11:16:01;;;;;;;6.90;1.65;;;15.00;65.60;;;;;;5095134;28;20061;-75
2022/02/01 11:18:28;;;;;;;6.43;1.77;;;15.00;65.50;;;;;;5095400;28;20056;-74
2022/02/01 11:21:09;;;;;;;10.90;2.13;;;15.00;65.40;;;;;;5091131;28;20047;-74
2022/02/01 11:24:01;;;;;;;6.40;1.67;;;15.00;65.30;;;;;;5075060;28;20053;-75
2022/02/01 11:26:36;;;;;;;5.13;1.85;;;15.00;65.40;;;;;;5057169;28;20044;-76
2022/02/01 11:31:45;;;;;;;6.32;1.85;;;14.90;65.30;;;;;;5084261;28;20055;-76
2022/02/01 11:34:16;;;;;;;4.45;1.27;;;14.90;65.30;;;;;;5095307;28;20052;-75
2022/02/01 11:36:43;;;;;;;6.38;1.77;;;14.90;65.30;;;;;;5094908;28;20051;-75
2022/02/01 11:39:13;;;;;;;9.50;2.10;;;14.90;65.30;;;;;;5094932;28;20154;-75
2022/02/01 11:41:42;;;;;;;9.32;1.80;;;14.90;65.30;;;;;;5084567;28;20040;-75
2022/02/01 11:44:12;;;;;;;6.22;1.90;;;14.80;65.30;;;;;;5074798;28;20349;-75
2022/02/01 11:46:39;;;;;;;6.28;1.40;;;14.90;65.30;;;;;;5074736;28;20049;-76
2022/02/01 11:49:06;;;;;;;7.95;2.42;;;14.80;65.20;;;;;;5074820;28;20052;-76
2022/02/01 11:51:32;;;;;;;7.78;2.10;;;14.90;65.30;;;;;;5085871;28;20044;-75
2022/02/01 11:54:00;;;;;;;4.53;1.15;;;14.80;65.30;;;;;;5078472;28;20139;-76
2022/02/01 11:56:40;;;;;;;7.80;1.77;;;14.80;65.30;;;;;;5075341;28;20060;-74
2022/02/01 11:59:09;;;;;;;6.45;1.80;;;14.80;65.20;;;;;;5074737;28;20044;-74
2022/02/01 12:01:38;;;;;;;7.60;1.98;;;14.80;65.30;;;;;;5074403;28;20072;-75
2022/02/01 12:04:10;;;;;;;5.90;1.85;;;14.80;65.30;;;;;;5097647;28;20520;-75
2022/02/01 12:06:48;;;;;;;6.03;1.40;;;14.80;65.30;;;;;;5098613;28;20131;-73
2022/02/01 12:09:21;;;;;;;7.38;1.70;;;14.80;65.80;;;;;;5081427;28;20058;-76
2022/02/01 12:11:52;;;;;;;5.82;1.52;;;14.80;65.90;;;;;;5094285;28;20127;-73
2022/02/01 12:14:18;;;;;;;7.95;1.98;;;14.80;65.40;;;;;;5067523;28;20345;-74
2022/02/01 12:16:48;;;;;;;8.00;1.73;;;14.80;65.60;;;;;;5088893;28;20131;-77
2022/02/01 12:19:23;;;;;;;9.98;1.98;;;14.70;66.30;;;;;;5098191;28;20079;-76
2022/02/01 12:22:47;;;;;;;9.27;2.35;;;14.70;66.80;;;;;;5092662;28;20059;-73
2022/02/01 12:25:12;;;;;;;8.27;1.90;;;14.80;66.60;;;;;;4980516;28;20111;-75
2022/02/01 12:27:40;;;;;;;11.15;2.75;;;14.80;66.70;;;;;;4996425;28;20379;-75
2022/02/01 12:30:08;;;;;;;9.00;2.38;;;14.80;66.80;;;;;;5044744;28;20056;-75
2022/02/01 12:32:35;;;;;;;14.65;2.78;;;14.80;66.70;;;;;;5090475;28;20048;-75
2022/02/01 12:35:01;;;;;;;14.15;2.80;;;14.80;66.80;;;;;;5060202;28;20048;-73
2022/02/01 12:37:29;;;;;;;12.75;2.70;;;14.80;66.70;;;;;;5077459;28;20106;-73
2022/02/01 12:40:09;;;;;;;10.68;2.20;;;14.80;66.80;;;;;;5076981;28;20040;-75
2022/02/01 12:42:49;;;;;;;12.73;2.63;;;14.70;66.80;;;;;;5083637;28;20052;-75
2022/02/01 12:48:05;;;;;;;7.95;2.45;;;14.80;66.70;;;;;;5077895;28;20041;-75
2022/02/01 12:50:31;;;;;;;10.82;2.80;;;14.80;66.70;;;;;;5077639;28;20064;-73
2022/02/01 12:53:01;;;;;;;12.02;3.15;;;14.90;66.70;;;;;;5077353;28;20059;-76
2022/02/01 12:55:28;;;;;;;10.27;2.92;;;14.90;66.70;;;;;;5094768;28;20040;-78
2022/02/01 12:58:03;;;;;;;10.00;2.40;;;15.00;66.50;;;;;;5075442;28;20036;-75
2022/02/01 13:00:30;;;;;;;12.60;2.33;;;15.10;66.40;;;;;;5077585;28;20117;-74
2022/02/01 13:03:03;;;;;;;11.77;2.58;;;15.20;66.40;;;;;;5067270;28;20056;-75
2022/02/01 13:05:30;;;;;;;9.13;2.72;;;15.30;66.30;;;;;;5097645;28;20126;-74
2022/02/01 13:08:22;;;;;;;9.38;1.80;;;15.40;66.00;;;;;;5097099;28;20102;-76
2022/02/01 13:21:21;;;;;;;9.48;2.35;;;15.60;65.40;;;;;;5076747;28;20056;-76
2022/02/01 13:23:52;;;;;;;8.05;2.38;;;15.60;65.30;;;;;;5059842;28;20456;-76
2022/02/01 13:26:19;;;;;;;10.73;2.33;;;15.70;65.30;;;;;;5076374;28;20052;-75
2022/02/01 13:28:59;;;;;;;9.20;2.33;;;15.70;65.20;;;;;;5058993;28;20052;-74
2022/02/01 13:31:29;;;;;;;10.85;2.25;;;15.70;65.20;;;;;;5085881;28;20345;-77
2022/02/01 13:34:00;;;;;;;10.55;2.45;;;15.60;65.40;;;;;;5075865;28;20119;-76
2022/02/01 13:36:27;;;;;;;7.40;2.10;;;15.60;65.20;;;;;;5076631;28;20461;-78
2022/02/01 13:38:54;;;;;;;13.25;2.50;;;15.60;65.60;;;;;;5076533;28;20372;-73
2022/02/01 13:41:21;;;;;;;49.45;6.50;;;15.60;65.90;;;;;;5058808;28;20145;-75
2022/02/01 13:43:51;;;;;;;17.73;3.00;;;15.60;66.70;;;;;;5069479;28;20047;-75
2022/02/01 13:46:32;;;;;;;18.48;2.92;;;15.60;67.10;;;;;;5096708;28;20137;-74
2022/02/01 13:49:04;;;;;;;14.93;2.88;;;15.60;67.40;;;;;;5096239;28;20048;-74
2022/02/01 13:51:31;;;;;;;16.77;2.67;;;15.60;67.60;;;;;;5078841;28;20044;-76
2022/02/01 13:54:07;;;;;;;10.88;2.35;;;15.70;67.60;;;;;;5084262;28;20140;-74
2022/02/01 13:56:43;;;;;;;13.98;2.72;;;15.80;67.50;;;;;;5058186;28;20127;-76
2022/02/01 13:59:11;;;;;;;13.63;2.55;;;15.90;67.20;;;;;;5076137;28;20036;-78
2022/02/01 14:01:42;;;;;;;18.05;3.33;;;16.10;67.00;;;;;;5059424;28;20439;-74
2022/02/01 14:04:15;;;;;;;13.20;3.00;;;16.30;66.70;;;;;;5096350;28;20063;-73
2022/02/01 14:06:58;;;;;;;13.77;2.70;;;16.40;66.60;;;;;;5096489;28;20534;-74
2022/02/01 14:09:39;;;;;;;12.93;2.72;;;16.50;65.60;;;;;;5086621;28;20471;-77
2022/02/01 14:23:08;;;;;;;17.92;3.85;;;16.70;65.30;;;;;;5095862;28;20438;-75
2022/02/01 14:33:53;;;;;;;16.17;3.20;;;16.40;66.60;;;;;;5097703;28;20464;-74
2022/02/01 14:36:20;;;;;;;11.63;3.08;;;16.50;66.30;;;;;;5101511;28;20066;-77
2022/02/01 14:46:49;;;;;;;19.38;3.30;;;16.80;65.30;;;;;;5094286;28;20084;-75
2022/02/01 14:49:15;;;;;;;12.68;2.72;;;16.90;65.10;;;;;;5075345;28;20103;-72
2022/02/01 14:51:41;;;;;;;17.35;2.90;;;17.00;64.90;;;;;;5080068;28;20040;-75
2022/02/01 14:54:11;;;;;;;11.13;2.60;;;17.10;64.70;;;;;;5095648;28;20355;-77
2022/02/01 14:56:39;;;;;;;14.82;3.33;;;17.10;64.30;;;;;;5094781;28;20340;-76
2022/02/01 15:04:53;;;;;;;10.48;2.28;;;17.40;62.40;;;;;;5077366;28;20455;-76